Time,TemperatureF,DewpointF,PressureIn,WindDirection,WindDirectionDegrees,WindSpeedMPH,WindSpeedGustMPH,Humidity,HourlyPrecipIn,Conditions,Clouds,dailyrainin,SolarRadiationWatts/m^2,SoftwareType,DateUTC
2013-06-05 00:02:00,29.0,28.0,-100.00,ESE,113,13.0,18.0,96,0.00,,,0.00,8.000000,,2013-06-05 08:02:00,
2013-06-05 00:12:00,29.0,28.0,-100.00,ESE,113,13.0,18.0,96,0.00,,,0.00,8.000000,,2013-06-05 08:12:00,
2013-06-05 00:22:00,29.0,28.0,-100.00,ESE,113,13.0,18.0,96,0.00,,,0.00,8.000000,,2013-06-05 08:22:00,
2013-06-05 00:32:00,29.0,28.0,-100.00,ESE,113,13.0,18.0,96,0.00,,,0.00,8.000000,,2013-06-05 08:32:00,
2013-06-05 00:42:00,29.0,28.0,-100.00,ESE,113,13.0,18.0,96,0.00,,,0.00,8.000000,,2013-06-05 08:42:00,
2013-06-05 01:02:00,28.0,27.0,-100.00,ESE,123,12.0,19.0,95,0.00,,,0.00,0.000000,,2013-06-05 09:02:00,
2013-06-05 01:12:00,28.0,27.0,-100.00,ESE,123,12.0,19.0,95,0.00,,,0.00,0.000000,,2013-06-05 09:12:00,
2013-06-05 01:22:00,28.0,27.0,-100.00,ESE,123,12.0,19.0,95,0.00,,,0.00,0.000000,,2013-06-05 09:22:00,
2013-06-05 01:32:00,28.0,27.0,-100.00,ESE,123,12.0,19.0,95,0.00,,,0.00,0.000000,,2013-06-05 09:32:00,
2013-06-05 01:42:00,28.0,27.0,-100.00,ESE,123,12.0,19.0,95,0.00,,,0.00,0.000000,,2013-06-05 09:42:00,
2013-06-05 02:03:00,28.0,27.0,-100.00,SE,130,8.0,16.0,96,0.00,,,-99.99,0.000000,,2013-06-05 10:03:00,
2013-06-05 02:12:00,28.0,27.0,-100.00,SE,130,8.0,16.0,96,0.00,,,-99.99,0.000000,,2013-06-05 10:12:00,
2013-06-05 02:22:00,28.0,27.0,-100.00,SE,130,8.0,16.0,96,0.00,,,-99.99,0.000000,,2013-06-05 10:22:00,
2013-06-05 02:33:00,28.0,27.0,-100.00,SE,130,8.0,16.0,96,0.00,,,-99.99,0.000000,,2013-06-05 10:33:00,
2013-06-05 02:42:00,28.0,27.0,-100.00,SE,130,8.0,16.0,96,0.00,,,-99.99,0.000000,,2013-06-05 10:42:00,
2013-06-05 03:02:00,27.0,26.0,-100.00,SE,127,9.0,13.0,96,0.00,,,0.00,0.000000,,2013-06-05 11:02:00,
2013-06-05 03:12:00,27.0,26.0,-100.00,SE,127,9.0,13.0,96,0.00,,,0.00,0.000000,,2013-06-05 11:12:00,
2013-06-05 03:22:00,27.0,26.0,-100.00,SE,127,9.0,13.0,96,0.00,,,0.00,0.000000,,2013-06-05 11:22:00,
2013-06-05 03:32:00,27.0,26.0,-100.00,SE,127,9.0,13.0,96,0.00,,,0.00,0.000000,,2013-06-05 11:32:00,
2013-06-05 03:42:00,27.0,26.0,-100.00,SE,127,9.0,13.0,96,0.00,,,0.00,0.000000,,2013-06-05 11:42:00,
2013-06-05 03:43:00,26.0,25.0,-100.00,ENE,69,2.0,13.0,95,0.00,,,0.00,0.000000,,2013-06-05 11:43:00,
2013-06-05 04:02:00,26.0,25.0,-100.00,ENE,69,2.0,13.0,95,0.00,,,0.00,0.000000,,2013-06-05 12:02:00,
2013-06-05 04:12:00,26.0,25.0,-100.00,ENE,69,2.0,13.0,95,0.00,,,0.00,0.000000,,2013-06-05 12:12:00,
2013-06-05 04:22:00,26.0,25.0,-100.00,ENE,69,2.0,13.0,95,0.00,,,0.00,0.000000,,2013-06-05 12:22:00,
2013-06-05 04:32:00,26.0,25.0,-100.00,ENE,69,2.0,13.0,95,0.00,,,0.00,0.000000,,2013-06-05 12:32:00,
2013-06-05 05:02:00,25.0,24.0,-100.00,SE,132,5.0,11.0,95,0.00,,,0.00,2.300000,,2013-06-05 13:02:00,
2013-06-05 05:12:00,25.0,24.0,-100.00,SE,132,5.0,11.0,95,0.00,,,0.00,2.300000,,2013-06-05 13:12:00,
2013-06-05 05:22:00,25.0,24.0,-100.00,SE,132,5.0,11.0,95,0.00,,,0.00,2.300000,,2013-06-05 13:22:00,
2013-06-05 05:32:00,25.0,24.0,-100.00,SE,132,5.0,11.0,95,0.00,,,0.00,2.300000,,2013-06-05 13:32:00,
2013-06-05 05:42:00,25.0,24.0,-100.00,SE,132,5.0,11.0,95,0.00,,,0.00,2.300000,,2013-06-05 13:42:00,
2013-06-05 06:02:00,29.0,28.0,-100.00,West,273,2.0,10.0,94,0.00,,,0.00,36.599998,,2013-06-05 14:02:00,
2013-06-05 06:12:00,29.0,28.0,-100.00,West,273,2.0,10.0,94,0.00,,,0.00,36.599998,,2013-06-05 14:12:00,
2013-06-05 06:22:00,29.0,28.0,-100.00,West,273,2.0,10.0,94,0.00,,,0.00,36.599998,,2013-06-05 14:22:00,
2013-06-05 06:32:00,29.0,28.0,-100.00,West,273,2.0,10.0,94,0.00,,,0.00,36.599998,,2013-06-05 14:32:00,
2013-06-05 06:42:00,29.0,28.0,-100.00,West,273,2.0,10.0,94,0.00,,,0.00,36.599998,,2013-06-05 14:42:00,
2013-06-05 07:02:00,30.0,27.0,-100.00,ESE,108,9.0,12.0,88,0.00,,,0.00,165.000000,,2013-06-05 15:02:00,
2013-06-05 07:12:00,30.0,27.0,-100.00,ESE,108,9.0,12.0,88,0.00,,,0.00,165.000000,,2013-06-05 15:12:00,
2013-06-05 07:22:00,30.0,27.0,-100.00,ESE,108,9.0,12.0,88,0.00,,,0.00,165.000000,,2013-06-05 15:22:00,
2013-06-05 07:33:00,30.0,27.0,-100.00,ESE,108,9.0,12.0,88,0.00,,,0.00,165.000000,,2013-06-05 15:33:00,
2013-06-05 07:42:00,30.0,27.0,-100.00,ESE,108,9.0,12.0,88,0.00,,,0.00,165.000000,,2013-06-05 15:42:00,
2013-06-05 08:03:00,30.0,28.0,-100.00,ESE,123,9.0,15.0,90,0.00,,,0.00,310.899994,,2013-06-05 16:03:00,
2013-06-05 08:12:00,30.0,28.0,-100.00,ESE,123,9.0,15.0,90,0.00,,,0.00,310.899994,,2013-06-05 16:12:00,
2013-06-05 08:22:00,30.0,28.0,-100.00,ESE,123,9.0,15.0,90,0.00,,,0.00,310.899994,,2013-06-05 16:22:00,
2013-06-05 08:32:00,30.0,28.0,-100.00,ESE,123,9.0,15.0,90,0.00,,,0.00,310.899994,,2013-06-05 16:32:00,
2013-06-05 08:42:00,30.0,28.0,-100.00,ESE,123,9.0,15.0,90,0.00,,,0.00,310.899994,,2013-06-05 16:42:00,
2013-06-05 09:02:00,38.0,34.0,-100.00,ESE,116,3.0,14.0,85,0.00,,,0.00,447.799988,,2013-06-05 17:02:00,
2013-06-05 09:12:00,38.0,34.0,-100.00,ESE,116,3.0,14.0,85,0.00,,,0.00,447.799988,,2013-06-05 17:12:00,
2013-06-05 09:22:00,38.0,34.0,-100.00,ESE,116,3.0,14.0,85,0.00,,,0.00,447.799988,,2013-06-05 17:22:00,
2013-06-05 09:32:00,38.0,34.0,-100.00,ESE,116,3.0,14.0,85,0.00,,,0.00,447.799988,,2013-06-05 17:32:00,
2013-06-05 09:42:00,38.0,34.0,-100.00,ESE,116,3.0,14.0,85,0.00,,,0.00,447.799988,,2013-06-05 17:42:00,
2013-06-05 10:02:00,34.0,31.0,-100.00,ENE,65,5.0,6.0,88,0.00,,,0.00,586.200012,,2013-06-05 18:02:00,
2013-06-05 10:12:00,34.0,31.0,-100.00,ENE,65,5.0,6.0,88,0.00,,,0.00,586.200012,,2013-06-05 18:12:00,
2013-06-05 10:22:00,34.0,31.0,-100.00,ENE,65,5.0,6.0,88,0.00,,,0.00,586.200012,,2013-06-05 18:22:00,
2013-06-05 10:32:00,34.0,31.0,-100.00,ENE,65,5.0,6.0,88,0.00,,,0.00,586.200012,,2013-06-05 18:32:00,
2013-06-05 10:42:00,34.0,31.0,-100.00,ENE,65,5.0,6.0,88,0.00,,,0.00,586.200012,,2013-06-05 18:42:00,
2013-06-05 11:02:00,37.0,31.0,-100.00,ESE,107,11.0,13.0,79,0.00,,,0.00,826.500000,,2013-06-05 19:02:00,
2013-06-05 11:12:00,37.0,31.0,-100.00,ESE,107,11.0,13.0,79,0.00,,,0.00,826.500000,,2013-06-05 19:12:00,
2013-06-05 11:23:00,37.0,31.0,-100.00,ESE,107,11.0,13.0,79,0.00,,,0.00,826.500000,,2013-06-05 19:23:00,
2013-06-05 11:32:00,37.0,31.0,-100.00,ESE,107,11.0,13.0,79,0.00,,,0.00,826.500000,,2013-06-05 19:32:00,
2013-06-05 11:42:00,37.0,31.0,-100.00,ESE,107,11.0,13.0,79,0.00,,,0.00,826.500000,,2013-06-05 19:42:00,
2013-06-05 12:02:00,37.0,31.0,-100.00,East,97,6.0,15.0,78,0.00,,,0.00,926.099976,,2013-06-05 20:02:00,
2013-06-05 12:12:00,37.0,31.0,-100.00,East,97,6.0,15.0,78,0.00,,,0.00,926.099976,,2013-06-05 20:12:00,
2013-06-05 12:22:00,37.0,31.0,-100.00,East,97,6.0,15.0,78,0.00,,,0.00,926.099976,,2013-06-05 20:22:00,
2013-06-05 12:32:00,37.0,31.0,-100.00,East,97,6.0,15.0,78,0.00,,,0.00,926.099976,,2013-06-05 20:32:00,
2013-06-05 12:42:00,37.0,31.0,-100.00,East,97,6.0,15.0,78,0.00,,,0.00,926.099976,,2013-06-05 20:42:00,
2013-06-05 12:43:00,45.0,36.0,-100.00,East,92,3.0,11.0,68,0.00,,,0.00,1058.099976,,2013-06-05 20:43:00,
2013-06-05 13:02:00,45.0,36.0,-100.00,East,92,3.0,11.0,68,0.00,,,0.00,1058.099976,,2013-06-05 21:02:00,
2013-06-05 13:12:00,45.0,36.0,-100.00,East,92,3.0,11.0,68,0.00,,,0.00,1058.099976,,2013-06-05 21:12:00,
2013-06-05 13:22:00,45.0,36.0,-100.00,East,92,3.0,11.0,68,0.00,,,0.00,1058.099976,,2013-06-05 21:22:00,
2013-06-05 13:33:00,45.0,36.0,-100.00,East,92,3.0,11.0,68,0.00,,,0.00,1058.099976,,2013-06-05 21:33:00,
2013-06-05 14:02:00,39.0,32.0,-100.00,East,100,8.0,11.0,75,0.00,,,0.00,1040.099976,,2013-06-05 22:02:00,
2013-06-05 14:12:00,39.0,32.0,-100.00,East,100,8.0,11.0,75,0.00,,,0.00,1040.099976,,2013-06-05 22:12:00,
2013-06-05 14:22:00,39.0,32.0,-100.00,East,100,8.0,11.0,75,0.00,,,0.00,1040.099976,,2013-06-05 22:22:00,
2013-06-05 14:32:00,39.0,32.0,-100.00,East,100,8.0,11.0,75,0.00,,,0.00,1040.099976,,2013-06-05 22:32:00,
2013-06-05 14:42:00,39.0,32.0,-100.00,East,100,8.0,11.0,75,0.00,,,0.00,1040.099976,,2013-06-05 22:42:00,
2013-06-05 15:02:00,38.0,30.0,-100.00,ESE,108,11.0,13.0,74,0.00,,,0.00,1097.400024,,2013-06-05 23:02:00,
2013-06-05 15:12:00,38.0,30.0,-100.00,ESE,108,11.0,13.0,74,0.00,,,0.00,1097.400024,,2013-06-05 23:12:00,
2013-06-05 15:22:00,38.0,30.0,-100.00,ESE,108,11.0,13.0,74,0.00,,,0.00,1097.400024,,2013-06-05 23:22:00,
2013-06-05 15:32:00,38.0,30.0,-100.00,ESE,108,11.0,13.0,74,0.00,,,0.00,1097.400024,,2013-06-05 23:32:00,
2013-06-05 15:42:00,38.0,30.0,-100.00,ESE,108,11.0,13.0,74,0.00,,,0.00,1097.400024,,2013-06-05 23:42:00,
2013-06-05 16:02:00,37.0,30.0,-100.00,ESE,116,12.0,15.0,74,0.00,,,0.00,1009.799988,,2013-06-06 00:02:00,
2013-06-05 16:12:00,37.0,30.0,-100.00,ESE,116,12.0,15.0,74,0.00,,,0.00,1009.799988,,2013-06-06 00:12:00,
2013-06-05 16:22:00,37.0,30.0,-100.00,ESE,116,12.0,15.0,74,0.00,,,0.00,1009.799988,,2013-06-06 00:22:00,
2013-06-05 16:32:00,37.0,30.0,-100.00,ESE,116,12.0,15.0,74,0.00,,,0.00,1009.799988,,2013-06-06 00:32:00,
2013-06-05 16:42:00,37.0,30.0,-100.00,ESE,116,12.0,15.0,74,0.00,,,0.00,1009.799988,,2013-06-06 00:42:00,
2013-06-05 17:02:00,36.0,29.0,-100.00,ESE,120,11.0,16.0,76,0.00,,,0.00,863.200012,,2013-06-06 01:02:00,
2013-06-05 17:12:00,36.0,29.0,-100.00,ESE,120,11.0,16.0,76,0.00,,,0.00,863.200012,,2013-06-06 01:12:00,
2013-06-05 17:22:00,36.0,29.0,-100.00,ESE,120,11.0,16.0,76,0.00,,,0.00,863.200012,,2013-06-06 01:22:00,
2013-06-05 17:32:00,36.0,29.0,-100.00,ESE,120,11.0,16.0,76,0.00,,,0.00,863.200012,,2013-06-06 01:32:00,
2013-06-05 17:42:00,36.0,29.0,-100.00,ESE,120,11.0,16.0,76,0.00,,,0.00,863.200012,,2013-06-06 01:42:00,
2013-06-05 18:02:00,36.0,29.0,-100.00,ESE,122,9.0,17.0,77,0.00,,,0.00,754.099976,,2013-06-06 02:02:00,
2013-06-05 18:12:00,36.0,29.0,-100.00,ESE,122,9.0,17.0,77,0.00,,,0.00,754.099976,,2013-06-06 02:12:00,
2013-06-05 18:22:00,36.0,29.0,-100.00,ESE,122,9.0,17.0,77,0.00,,,0.00,754.099976,,2013-06-06 02:22:00,
2013-06-05 18:32:00,36.0,29.0,-100.00,ESE,122,9.0,17.0,77,0.00,,,0.00,754.099976,,2013-06-06 02:32:00,
2013-06-05 18:42:00,36.0,29.0,-100.00,ESE,122,9.0,17.0,77,0.00,,,0.00,754.099976,,2013-06-06 02:42:00,
2013-06-05 18:43:00,35.0,30.0,-100.00,ESE,102,11.0,17.0,81,0.00,,,0.00,695.299988,,2013-06-06 02:43:00,
2013-06-05 19:02:00,35.0,30.0,-100.00,ESE,102,11.0,17.0,81,0.00,,,0.00,695.299988,,2013-06-06 03:02:00,
2013-06-05 19:12:00,35.0,30.0,-100.00,ESE,102,11.0,17.0,81,0.00,,,0.00,695.299988,,2013-06-06 03:12:00,
2013-06-05 19:22:00,35.0,30.0,-100.00,ESE,102,11.0,17.0,81,0.00,,,0.00,695.299988,,2013-06-06 03:22:00,
2013-06-05 19:33:00,35.0,30.0,-100.00,ESE,102,11.0,17.0,81,0.00,,,0.00,695.299988,,2013-06-06 03:33:00,
2013-06-05 20:03:00,34.0,29.0,-100.00,East,91,11.0,15.0,83,0.00,,,0.00,548.599976,,2013-06-06 04:03:00,
2013-06-05 20:13:00,34.0,29.0,-100.00,East,91,11.0,15.0,83,0.00,,,0.00,548.599976,,2013-06-06 04:13:00,
2013-06-05 20:23:00,34.0,29.0,-100.00,East,91,11.0,15.0,83,0.00,,,0.00,548.599976,,2013-06-06 04:23:00,
2013-06-05 20:33:00,34.0,29.0,-100.00,East,91,11.0,15.0,83,0.00,,,0.00,548.599976,,2013-06-06 04:33:00,
2013-06-05 20:42:00,34.0,29.0,-100.00,East,91,11.0,15.0,83,0.00,,,0.00,548.599976,,2013-06-06 04:42:00,
2013-06-05 21:02:00,32.0,29.0,-100.00,East,90,15.0,15.0,89,0.00,,,0.00,396.100006,,2013-06-06 05:02:00,
2013-06-05 21:12:00,32.0,29.0,-100.00,East,90,15.0,15.0,89,0.00,,,0.00,396.100006,,2013-06-06 05:12:00,
2013-06-05 21:22:00,32.0,29.0,-100.00,East,90,15.0,15.0,89,0.00,,,0.00,396.100006,,2013-06-06 05:22:00,
2013-06-05 21:32:00,32.0,29.0,-100.00,East,90,15.0,15.0,89,0.00,,,0.00,396.100006,,2013-06-06 05:32:00,
2013-06-05 21:42:00,32.0,29.0,-100.00,East,90,15.0,15.0,89,0.00,,,0.00,396.100006,,2013-06-06 05:42:00,
2013-06-05 22:02:00,31.0,29.0,-100.00,East,91,15.0,17.0,95,0.00,,,0.00,123.300003,,2013-06-06 06:02:00,
2013-06-05 22:12:00,31.0,29.0,-100.00,East,91,15.0,17.0,95,0.00,,,0.00,123.300003,,2013-06-06 06:12:00,
2013-06-05 22:22:00,31.0,29.0,-100.00,East,91,15.0,17.0,95,0.00,,,0.00,123.300003,,2013-06-06 06:22:00,
2013-06-05 22:32:00,31.0,29.0,-100.00,East,91,15.0,17.0,95,0.00,,,0.00,123.300003,,2013-06-06 06:32:00,
2013-06-05 22:42:00,31.0,29.0,-100.00,East,91,15.0,17.0,95,0.00,,,0.00,123.300003,,2013-06-06 06:42:00,
2013-06-05 23:02:00,30.0,29.0,-100.00,East,91,16.0,17.0,97,0.00,,,0.00,59.599998,,2013-06-06 07:02:00,
2013-06-05 23:12:00,30.0,29.0,-100.00,East,91,16.0,17.0,97,0.00,,,0.00,59.599998,,2013-06-06 07:12:00,
2013-06-05 23:22:00,30.0,29.0,-100.00,East,91,16.0,17.0,97,0.00,,,0.00,59.599998,,2013-06-06 07:22:00,
2013-06-05 23:32:00,30.0,29.0,-100.00,East,91,16.0,17.0,97,0.00,,,0.00,59.599998,,2013-06-06 07:32:00,
2013-06-05 23:42:00,30.0,29.0,-100.00,East,91,16.0,17.0,97,0.00,,,0.00,59.599998,,2013-06-06 07:42:00,